createdAt,value
2019-05-23T05:52:26.403Z,79.81
2019-05-23T05:53:26.385Z,78.80
2019-05-23T05:54:26.383Z,79.30
2019-05-23T05:55:26.361Z,79.71
2019-05-23T05:56:26.349Z,79.30
2019-05-23T05:57:26.339Z,78.25
2019-05-23T05:58:26.330Z,77.33
2019-05-23T05:59:26.319Z,78.25
2019-05-23T06:00:26.319Z,77.53
2019-05-23T06:01:33.816Z,78.66
2019-05-23T06:02:27.287Z,77.29
2019-05-23T06:03:26.275Z,75.87
2019-05-23T06:04:26.263Z,76.11
2019-05-23T06:05:26.260Z,76.92
2019-05-23T06:06:26.238Z,77.44
2019-05-23T06:07:26.226Z,76.62
2019-05-23T06:08:26.218Z,77.40
2019-05-23T06:09:26.205Z,77.50
2019-05-23T06:10:26.207Z,77.06
2019-05-23T06:11:26.181Z,77.47
2019-05-23T06:12:26.171Z,77.16
2019-05-23T06:13:26.158Z,76.92
2019-05-23T06:14:26.149Z,76.17
2019-05-23T06:15:26.146Z,76.78
2019-05-23T06:16:26.127Z,75.87
2019-05-23T06:17:26.240Z,75.22
2019-05-23T06:18:26.106Z,75.32
2019-05-23T06:19:26.106Z,72.34
2019-05-23T06:20:26.102Z,73.66
2019-05-23T06:21:26.073Z,73.16
2019-05-23T06:22:26.061Z,73.26
2019-05-23T06:23:26.052Z,73.12
2019-05-23T06:24:42.091Z,73.43
2019-05-23T06:25:27.036Z,72.41
2019-05-23T06:26:26.059Z,72.21
2019-05-23T06:27:26.007Z,72.21
2019-05-23T06:28:26.000Z,72.92
2019-05-23T06:29:25.982Z,72.68
2019-05-23T06:30:25.979Z,72.38
2019-05-23T06:31:25.960Z,72.55
2019-05-23T06:32:25.950Z,72.45
2019-05-23T06:33:25.938Z,71.64
2019-05-23T06:34:25.927Z,71.33
2019-05-23T06:35:25.925Z,70.72
2019-05-23T06:36:25.903Z,70.32
2019-05-23T06:37:25.912Z,70.69
2019-05-23T06:38:25.903Z,70.08
2019-05-23T06:39:25.870Z,69.88
2019-05-23T06:40:25.868Z,70.39
2019-05-23T06:41:25.867Z,69.57
2019-05-23T06:42:25.840Z,69.88
2019-05-23T06:43:26.125Z,69.85
2019-05-23T06:44:25.835Z,68.84
2019-05-23T06:45:25.805Z,69.04
2019-05-23T06:46:25.800Z,68.63
2019-05-23T06:47:25.783Z,68.30
2019-05-23T06:48:25.773Z,68.19
2019-05-23T06:49:25.760Z,68.30
2019-05-23T06:50:25.746Z,66.58
2019-05-23T06:51:25.745Z,66.58
2019-05-23T06:52:25.728Z,66.61
2019-05-23T06:53:25.715Z,66.94
2019-05-23T06:54:25.703Z,68.06
2019-05-23T06:55:25.693Z,69.24
2019-05-23T06:56:25.692Z,67.62
2019-05-23T06:57:25.684Z,67.42
2019-05-23T06:58:25.733Z,68.50
2019-05-23T06:59:25.660Z,68.30
2019-05-23T07:00:25.645Z,68.30
2019-05-23T07:01:25.635Z,68.16
2019-05-23T07:02:25.622Z,65.73
2019-05-23T07:03:40.430Z,66.58
2019-05-23T07:04:26.611Z,68.60
2019-05-23T07:05:25.584Z,67.96
2019-05-23T07:06:25.589Z,69.18
2019-05-23T07:07:25.562Z,65.91
2019-05-23T07:08:25.593Z,65.30
2019-05-23T07:09:25.558Z,64.83
2019-05-23T07:10:25.540Z,65.77
2019-05-23T07:11:25.520Z,66.85
2019-05-23T07:12:25.502Z,67.69
2019-05-23T07:13:25.516Z,68.57
2019-05-23T07:14:25.480Z,68.43
2019-05-23T07:15:25.467Z,66.92
2019-05-23T07:16:25.474Z,64.97
2019-05-23T07:17:25.443Z,64.09
2019-05-23T07:18:25.434Z,65.00
2019-05-23T07:19:25.552Z,65.26
2019-05-23T07:20:25.409Z,65.56
2019-05-23T07:21:25.409Z,65.67
2019-05-23T07:22:25.397Z,66.75
2019-05-23T07:23:25.388Z,66.27
2019-05-23T07:24:25.367Z,66.04
2019-05-23T07:25:25.370Z,66.44
2019-05-23T07:26:25.377Z,65.43
2019-05-23T07:27:25.372Z,67.43
2019-05-23T07:28:25.322Z,66.82
2019-05-23T07:29:25.310Z,66.92
2019-05-23T07:30:25.325Z,66.58
2019-05-23T07:31:25.295Z,66.86
2019-05-23T07:32:25.273Z,66.05
2019-05-23T07:33:25.262Z,64.73
2019-05-23T07:34:25.252Z,63.93
2019-05-23T07:35:25.251Z,65.11
2019-05-23T07:36:25.272Z,64.84
2019-05-23T07:37:25.225Z,63.42
2019-05-23T07:38:25.209Z,64.84
2019-05-23T07:39:25.270Z,66.42
2019-05-23T07:40:25.186Z,65.61
2019-05-23T07:41:25.182Z,65.41
2019-05-23T07:42:25.172Z,65.88
2019-05-23T07:43:25.154Z,63.26
2019-05-23T07:44:25.142Z,65.38
2019-05-23T07:45:25.129Z,64.98
2019-05-23T07:46:25.121Z,63.33
2019-05-23T07:47:25.118Z,63.64
2019-05-23T07:48:25.095Z,63.53
2019-05-23T07:49:25.092Z,62.60
2019-05-23T07:50:25.080Z,62.90
2019-05-23T07:51:25.060Z,62.49
2019-05-23T07:52:25.058Z,63.90
2019-05-23T07:53:25.064Z,62.29
2019-05-23T07:54:25.039Z,61.66
2019-05-23T07:55:25.014Z,61.69
2019-05-23T07:56:25.029Z,63.10
2019-05-23T07:57:25.006Z,62.40
2019-05-23T07:58:24.982Z,63.30
2019-05-23T07:59:24.976Z,63.87
2019-05-23T08:00:24.979Z,63.17
2019-05-23T08:01:24.950Z,61.53
2019-05-23T08:02:26.349Z,61.30
2019-05-23T08:03:24.926Z,61.07
2019-05-23T08:04:24.919Z,61.30
2019-05-23T08:05:24.904Z,59.56
2019-05-23T08:06:24.899Z,60.57
2019-05-23T08:07:24.891Z,59.06
2019-05-23T08:08:24.872Z,59.36
2019-05-23T08:09:24.865Z,59.89
2019-05-23T08:10:33.540Z,59.69
2019-05-23T08:11:25.838Z,59.76
2019-05-23T08:12:24.835Z,59.59
2019-05-23T08:13:24.882Z,59.39
2019-05-23T08:14:24.805Z,59.82
2019-05-23T08:15:24.799Z,59.99
2019-05-23T08:16:24.785Z,60.02
2019-05-23T08:17:24.831Z,60.32
2019-05-23T08:18:24.766Z,60.52
2019-05-23T08:19:24.752Z,61.13
2019-05-23T08:20:24.741Z,61.00
2019-05-23T08:21:24.732Z,61.40
2019-05-23T08:22:24.725Z,61.40
2019-05-23T08:23:24.707Z,62.27
2019-05-23T08:24:24.702Z,61.34
2019-05-23T08:25:24.687Z,60.21
2019-05-23T08:26:24.714Z,59.20
2019-05-23T08:27:24.676Z,59.58
2019-05-23T08:28:24.649Z,59.38
2019-05-23T08:29:26.610Z,59.75
2019-05-23T08:30:24.631Z,60.15
2019-05-23T08:31:24.618Z,59.32
2019-05-23T08:32:24.607Z,58.89
2019-05-23T08:33:24.616Z,57.26
2019-05-23T08:34:40.059Z,57.06
2019-05-23T08:35:25.596Z,56.56
2019-05-23T08:36:24.598Z,56.63
2019-05-23T08:37:24.559Z,57.03
2019-05-23T08:38:24.551Z,56.93
2019-05-23T08:39:24.529Z,54.52
2019-05-23T08:40:24.523Z,54.02
2019-05-23T08:41:24.507Z,53.85
2019-05-23T08:42:24.495Z,53.37
2019-05-23T08:43:24.493Z,54.77
2019-05-23T08:44:24.475Z,55.28
2019-05-23T08:45:24.471Z,54.07
2019-05-23T08:46:24.453Z,53.47
2019-05-23T08:47:24.445Z,55.47
2019-05-23T08:48:24.439Z,54.07
2019-05-23T08:49:24.422Z,53.90
2019-05-23T08:50:24.407Z,53.20
2019-05-23T08:51:24.398Z,52.89
2019-05-23T08:52:24.385Z,54.02
2019-05-23T08:53:24.382Z,53.22
2019-05-23T08:54:24.362Z,54.33
2019-05-23T08:55:24.352Z,54.00
2019-05-23T08:56:24.346Z,53.22
2019-05-23T08:57:24.330Z,53.32
2019-05-23T08:58:24.328Z,54.80
2019-05-23T08:59:24.310Z,54.58
2019-05-23T09:00:24.295Z,52.87
2019-05-23T09:01:24.292Z,52.37
2019-05-23T09:02:24.273Z,53.25
2019-05-23T09:03:24.276Z,53.37
2019-05-23T09:04:24.258Z,52.67
2019-05-23T09:05:24.304Z,53.07
2019-05-23T09:06:24.239Z,52.37
2019-05-23T09:07:24.220Z,52.37
2019-05-23T09:08:24.219Z,52.77
2019-05-23T09:09:29.606Z,53.05
2019-05-23T09:10:25.185Z,52.24
2019-05-23T09:11:24.180Z,52.84
2019-05-23T09:12:24.241Z,51.74
2019-05-23T09:13:24.169Z,52.32
2019-05-23T09:14:24.153Z,53.72
2019-05-23T09:15:24.135Z,52.59
2019-05-23T09:16:24.123Z,52.67
2019-05-23T09:17:24.111Z,52.44
2019-05-23T09:18:24.109Z,51.52
2019-05-23T09:19:24.091Z,51.39
2019-05-23T09:20:24.091Z,51.37
2019-05-23T09:21:24.066Z,49.85
2019-05-23T09:22:24.068Z,47.75
2019-05-23T09:23:24.130Z,49.74
2019-05-23T09:24:24.035Z,49.02
2019-05-23T09:25:24.028Z,48.20
2019-05-23T09:26:24.022Z,48.28
2019-05-23T09:27:24.005Z,48.28
2019-05-23T09:28:24.005Z,46.16
2019-05-23T09:29:23.998Z,46.56
2019-05-23T09:30:23.977Z,46.36
2019-05-23T09:31:23.962Z,46.36
2019-05-23T09:32:23.955Z,45.56
2019-05-23T09:33:23.972Z,45.24
2019-05-23T09:34:23.939Z,46.54
2019-05-23T09:35:23.920Z,43.75
2019-05-23T09:36:23.911Z,44.05
2019-05-23T09:37:23.944Z,46.24
2019-05-23T09:38:23.895Z,46.44
2019-05-23T09:39:23.892Z,43.43
2019-05-23T09:40:23.874Z,44.05
2019-05-23T09:41:23.857Z,43.65
2019-05-23T09:42:23.846Z,45.82
2019-05-23T09:43:23.844Z,46.42
2019-05-23T09:44:23.834Z,44.90
2019-05-23T09:45:23.830Z,44.10
2019-05-23T09:46:23.809Z,44.28
2019-05-23T09:47:23.804Z,46.35
2019-05-23T09:48:23.785Z,45.26
2019-05-23T09:49:23.788Z,43.44
2019-05-23T09:50:23.767Z,42.23
2019-05-23T09:51:23.755Z,42.41
2019-05-23T09:52:23.747Z,41.91
2019-05-23T09:53:23.739Z,40.33
2019-05-23T09:54:23.731Z,41.14
2019-05-23T09:55:23.719Z,43.02
2019-05-23T09:56:23.703Z,40.64
2019-05-23T09:57:23.692Z,40.34
2019-05-23T09:58:23.681Z,42.65
2019-05-23T09:59:23.739Z,41.14
2019-05-23T10:00:23.663Z,40.64
2019-05-23T10:01:23.651Z,40.62
2019-05-23T10:02:23.643Z,41.02
2019-05-23T10:03:23.720Z,39.41
2019-05-23T10:04:23.709Z,40.09
2019-05-23T10:05:40.680Z,37.92
2019-05-23T10:06:24.602Z,38.02
2019-05-23T10:07:23.591Z,38.54
2019-05-23T10:08:23.582Z,39.05
2019-05-23T10:09:23.595Z,40.26
2019-05-23T10:10:23.567Z,39.80
2019-05-23T10:11:23.550Z,40.62
2019-05-23T10:12:23.540Z,39.14
2019-05-23T10:13:37.900Z,40.34
2019-05-23T10:14:24.551Z,40.14
2019-05-23T10:15:23.509Z,40.74
2019-05-23T10:16:23.506Z,39.42
2019-05-23T10:17:23.513Z,39.40
2019-05-23T10:18:23.478Z,40.78
2019-05-23T10:19:23.491Z,41.06
2019-05-23T10:20:23.467Z,41.12
2019-05-23T10:21:23.449Z,40.41
2019-05-23T10:22:23.446Z,39.17
2019-05-23T10:23:23.430Z,38.28
2019-05-23T10:24:23.421Z,36.69
2019-05-23T10:25:23.419Z,37.01
2019-05-23T10:26:23.415Z,37.51
2019-05-23T10:27:23.390Z,40.47
2019-05-23T10:28:23.384Z,38.18
2019-05-23T10:29:23.371Z,37.81
2019-05-23T10:30:23.371Z,39.21
2019-05-23T10:31:23.346Z,39.21
2019-05-23T10:32:23.337Z,39.05
2019-05-23T10:33:23.334Z,38.97
2019-05-23T10:34:23.347Z,39.76
2019-05-23T10:35:23.317Z,39.37
2019-05-23T10:36:23.297Z,40.46
2019-05-23T10:37:23.286Z,41.04
2019-05-23T10:38:23.275Z,40.41
2019-05-23T10:39:23.265Z,40.58
2019-05-23T10:40:23.268Z,37.87
2019-05-23T10:41:23.247Z,39.36
2019-05-23T10:42:23.248Z,37.83
2019-05-23T10:43:23.243Z,39.29
2019-05-23T10:44:23.221Z,39.28
2019-05-23T10:45:23.222Z,39.06
2019-05-23T10:46:23.196Z,38.43
2019-05-23T10:47:23.193Z,36.36
2019-05-23T10:48:23.177Z,35.28
2019-05-23T10:49:23.175Z,36.59
2019-05-23T10:50:23.167Z,36.41
2019-05-23T10:51:23.147Z,37.53
2019-05-23T10:52:23.138Z,38.32
2019-05-23T10:53:23.128Z,38.03
2019-05-23T10:54:23.121Z,37.22
2019-05-23T10:55:23.118Z,37.02
2019-05-23T10:56:23.105Z,37.99
2019-05-23T10:57:23.086Z,37.28
2019-05-23T10:58:23.074Z,37.76
2019-05-23T10:59:23.121Z,36.75
2019-05-23T11:00:23.071Z,35.47
2019-05-23T11:01:23.139Z,35.89
2019-05-23T11:02:23.036Z,37.02
2019-05-23T11:03:23.026Z,38.13
2019-05-23T11:04:23.018Z,38.74
2019-05-23T11:05:23.012Z,39.75
2019-05-23T11:06:22.997Z,38.85
2019-05-23T11:07:22.985Z,39.25
2019-05-23T11:08:28.208Z,39.63
2019-05-23T11:09:37.360Z,39.04
2019-05-23T11:10:23.963Z,39.61
2019-05-23T11:11:23.111Z,39.23
2019-05-23T11:12:22.931Z,39.12
2019-05-23T11:13:22.931Z,39.51
2019-05-23T11:14:22.923Z,39.69
2019-05-23T11:15:22.915Z,38.88
2019-05-23T11:16:22.892Z,39.18
2019-05-23T11:17:22.880Z,39.54
2019-05-23T11:18:22.874Z,37.96
2019-05-23T11:19:22.864Z,37.84
2019-05-23T11:20:22.851Z,37.03
2019-05-23T11:21:22.852Z,37.13
2019-05-23T11:22:22.829Z,35.93
2019-05-23T11:23:22.822Z,35.25
2019-05-23T11:24:22.828Z,35.49
2019-05-23T11:25:22.818Z,35.61
2019-05-23T11:26:22.802Z,37.05
2019-05-23T11:27:22.779Z,36.77
2019-05-23T11:28:22.779Z,37.67
2019-05-23T11:29:22.771Z,37.57
2019-05-23T11:30:22.748Z,37.07
2019-05-23T11:31:22.750Z,38.07
2019-05-23T11:32:22.738Z,37.45
2019-05-23T11:33:22.723Z,37.57
2019-05-23T11:34:22.727Z,37.87
2019-05-23T11:35:22.709Z,38.07
2019-05-23T11:36:34.610Z,39.23
2019-05-23T11:37:23.710Z,39.12
2019-05-23T11:38:22.673Z,39.20
2019-05-23T11:39:22.746Z,37.98
2019-05-23T11:40:22.651Z,36.67
2019-05-23T11:41:22.680Z,35.28
2019-05-23T11:42:22.639Z,36.67
2019-05-23T11:43:22.616Z,36.10
2019-05-23T11:44:22.607Z,38.15
2019-05-23T11:45:22.597Z,36.57
2019-05-23T11:46:22.595Z,37.96
2019-05-23T11:47:22.576Z,36.85
2019-05-23T11:48:22.567Z,36.63
2019-05-23T11:49:22.558Z,35.96
2019-05-23T11:50:22.552Z,35.47
2019-05-23T11:51:25.608Z,36.55
2019-05-23T11:52:22.528Z,35.27
2019-05-23T11:53:22.521Z,34.58
2019-05-23T11:54:22.507Z,35.58
2019-05-23T11:55:22.497Z,36.47
2019-05-23T11:56:22.509Z,34.39
2019-05-23T11:57:22.486Z,36.87
2019-05-23T11:58:22.465Z,37.26
2019-05-23T11:59:22.455Z,36.39
2019-05-23T12:00:22.450Z,36.79
2019-05-23T12:01:22.444Z,37.58
2019-05-23T12:02:22.424Z,36.79
2019-05-23T12:03:22.418Z,37.98
2019-05-23T12:04:22.408Z,37.08
2019-05-23T12:05:22.397Z,36.87
2019-05-23T12:06:26.033Z,37.36
2019-05-23T12:07:22.397Z,36.67
2019-05-23T12:08:22.363Z,38.23
2019-05-23T12:09:22.353Z,35.27
2019-05-23T12:10:22.883Z,34.46
2019-05-23T12:11:22.382Z,35.05
2019-05-23T12:12:22.331Z,35.45
2019-05-23T12:13:22.312Z,35.14
2019-05-23T12:14:22.302Z,32.88
2019-05-23T12:15:22.366Z,32.01
2019-05-23T12:16:22.278Z,34.18
2019-05-23T12:17:22.281Z,35.17
2019-05-23T12:18:22.264Z,34.08
2019-05-23T12:19:22.256Z,33.03
2019-05-23T12:20:22.246Z,33.64
2019-05-23T12:21:22.230Z,34.03
2019-05-23T12:22:22.236Z,34.63
2019-05-23T12:23:22.208Z,35.83
2019-05-23T12:24:22.201Z,36.72
2019-05-23T12:25:23.541Z,35.53
2019-05-23T12:26:22.178Z,35.55
2019-05-23T12:27:22.182Z,36.64
2019-05-23T12:28:22.158Z,36.82
2019-05-23T12:29:22.149Z,36.62
2019-05-23T12:30:22.139Z,37.62
2019-05-23T12:31:22.126Z,35.32
2019-05-23T12:32:22.128Z,37.20
2019-05-23T12:33:22.107Z,36.41
2019-05-23T12:34:22.102Z,36.21
2019-05-23T12:35:22.085Z,36.59
2019-05-23T12:36:22.092Z,35.21
2019-05-23T12:37:22.077Z,35.30
2019-05-23T12:38:22.055Z,36.90
2019-05-23T12:39:22.040Z,35.11
2019-05-23T12:40:22.035Z,36.10
2019-05-23T12:41:22.035Z,35.30
2019-05-23T12:42:22.020Z,36.69
2019-05-23T12:43:21.999Z,37.08
2019-05-23T12:44:22.001Z,36.18
2019-05-23T12:45:21.977Z,33.31
2019-05-23T12:46:21.971Z,33.73
2019-05-23T12:47:21.971Z,33.36
2019-05-23T12:48:21.956Z,33.82
2019-05-23T12:49:21.985Z,33.83
2019-05-23T12:50:21.928Z,35.24
2019-05-23T12:51:21.924Z,36.05
2019-05-23T12:52:21.920Z,37.15
2019-05-23T12:53:21.927Z,36.93
2019-05-23T12:54:21.883Z,37.13
2019-05-23T12:55:21.880Z,36.91
2019-05-23T12:56:21.864Z,38.20
2019-05-23T12:57:21.881Z,37.88
2019-05-23T12:58:21.856Z,37.88
2019-05-23T12:59:21.829Z,36.98
2019-05-23T13:00:21.841Z,36.76
2019-05-23T13:01:21.815Z,36.46
2019-05-23T13:02:21.811Z,37.24
2019-05-23T13:03:21.787Z,36.62
2019-05-23T13:04:21.779Z,35.52
2019-05-23T13:05:21.768Z,36.98
2019-05-23T13:06:21.757Z,35.68
2019-05-23T13:07:34.933Z,34.97
2019-05-23T13:08:22.747Z,32.40
2019-05-23T13:09:21.727Z,32.83
2019-05-23T13:10:24.759Z,34.41
2019-05-23T13:11:21.704Z,34.48
2019-05-23T13:12:21.695Z,33.47
2019-05-23T13:13:21.710Z,35.04
2019-05-23T13:14:21.670Z,32.65
2019-05-23T13:15:21.663Z,31.75
2019-05-23T13:16:21.651Z,33.13
2019-05-23T13:17:21.641Z,31.95
2019-05-23T13:18:21.638Z,32.16
2019-05-23T13:19:21.638Z,31.57
2019-05-23T13:20:21.606Z,32.45
2019-05-23T13:21:21.596Z,32.95
2019-05-23T13:22:21.600Z,33.13
2019-05-23T13:23:21.758Z,33.23
2019-05-23T13:24:21.569Z,33.51
2019-05-23T13:25:21.553Z,32.90
2019-05-23T13:26:21.545Z,33.39
2019-05-23T13:27:21.534Z,32.39
2019-05-23T13:28:21.540Z,32.89
2019-05-23T13:29:24.326Z,32.77
2019-05-23T13:30:21.502Z,31.49
2019-05-23T13:31:21.494Z,32.65
2019-05-23T13:32:21.490Z,33.33
2019-05-23T13:33:21.481Z,31.67
2019-05-23T13:34:21.466Z,31.88
2019-05-23T13:35:21.447Z,31.70
2019-05-23T13:36:21.464Z,32.69
2019-05-23T13:37:21.425Z,31.59
2019-05-23T13:38:21.430Z,31.87
2019-05-23T13:39:21.413Z,30.90
2019-05-23T13:40:21.399Z,29.72
2019-05-23T13:41:21.384Z,30.22
2019-05-23T13:42:21.374Z,31.20
2019-05-23T13:43:21.420Z,30.88
2019-05-23T13:44:32.621Z,31.85
2019-05-23T13:45:22.343Z,29.49
2019-05-23T13:46:21.332Z,29.03
2019-05-23T13:47:21.324Z,30.15
2019-05-23T13:48:21.335Z,31.52
2019-05-23T13:49:21.300Z,32.80
2019-05-23T13:50:21.294Z,32.69
2019-05-23T13:51:21.285Z,31.90
2019-05-23T13:52:21.269Z,31.41
2019-05-23T13:53:21.256Z,32.39
2019-05-23T13:54:21.308Z,32.60
2019-05-23T13:55:21.236Z,30.82
2019-05-23T13:56:21.316Z,30.94
2019-05-23T13:57:21.219Z,29.75
2019-05-23T13:58:21.203Z,30.24
2019-05-23T13:59:21.208Z,32.00
2019-05-23T14:00:21.183Z,31.28
2019-05-23T14:01:21.182Z,29.51
2019-05-23T14:02:21.187Z,29.33
2019-05-23T14:03:21.167Z,30.13
2019-05-23T14:04:21.161Z,29.75
2019-05-23T14:05:21.146Z,30.73
2019-05-23T14:06:21.126Z,30.93
2019-05-23T14:07:21.186Z,32.10
2019-05-23T14:08:21.134Z,31.79
2019-05-23T14:09:21.099Z,32.74
2019-05-23T14:10:21.087Z,31.15
2019-05-23T14:11:21.074Z,29.75
2019-05-23T14:12:22.060Z,30.02
2019-05-23T14:13:21.715Z,29.93
2019-05-23T14:14:21.070Z,29.14
2019-05-23T14:15:21.033Z,30.11
2019-05-23T14:16:21.028Z,31.37
2019-05-23T14:17:21.017Z,29.80
2019-05-23T14:18:21.005Z,29.60
2019-05-23T14:19:21.003Z,29.02
2019-05-23T14:20:20.982Z,27.07
2019-05-23T14:21:21.068Z,28.49
2019-05-23T14:22:20.969Z,29.03
2019-05-23T14:23:20.962Z,31.14
2019-05-23T14:24:20.970Z,31.26
2019-05-23T14:25:20.968Z,32.04
2019-05-23T14:26:20.919Z,31.63
2019-05-23T14:27:20.912Z,31.54
2019-05-23T14:28:20.901Z,30.94
2019-05-23T14:29:20.895Z,31.82
2019-05-23T14:30:20.879Z,31.11
2019-05-23T14:31:20.871Z,31.00
2019-05-23T14:32:20.951Z,31.39
2019-05-23T14:33:20.847Z,30.08
2019-05-23T14:34:20.848Z,30.07
2019-05-23T14:35:20.826Z,29.16
2019-05-23T14:36:20.817Z,29.24
2019-05-23T14:37:20.807Z,29.41
2019-05-23T14:38:30.432Z,28.31
2019-05-23T14:39:21.838Z,29.36
2019-05-23T14:40:20.777Z,29.55
2019-05-23T14:41:20.795Z,27.69
2019-05-23T14:42:20.756Z,27.39
2019-05-23T14:43:20.750Z,27.33
2019-05-23T14:44:20.750Z,27.63
2019-05-23T14:45:20.738Z,27.14
2019-05-23T14:46:20.715Z,27.35
2019-05-23T14:47:20.747Z,27.77
2019-05-23T14:48:20.700Z,27.49
2019-05-23T14:49:20.694Z,29.07
2019-05-23T14:50:20.704Z,29.17
2019-05-23T14:51:20.828Z,29.77
2019-05-23T14:52:20.657Z,28.97
2019-05-23T14:53:20.668Z,29.55
2019-05-23T14:54:20.641Z,29.14
2019-05-23T14:55:20.635Z,28.74
2019-05-23T14:56:20.619Z,27.94
2019-05-23T14:57:20.617Z,28.91
2019-05-23T14:58:20.597Z,28.40
2019-05-23T14:59:20.593Z,28.28
2019-05-23T15:00:20.575Z,27.09
2019-05-23T15:01:20.565Z,27.08
2019-05-23T15:02:20.559Z,27.47
2019-05-23T15:03:20.547Z,27.84
2019-05-23T15:04:20.551Z,27.45
2019-05-23T15:05:20.526Z,26.67
2019-05-23T15:06:20.516Z,27.26
2019-05-23T15:07:20.504Z,26.67
2019-05-23T15:08:20.514Z,27.16
2019-05-23T15:09:21.586Z,27.64
2019-05-23T15:10:20.473Z,28.34
2019-05-23T15:11:20.465Z,26.88
2019-05-23T15:12:20.533Z,27.20
2019-05-23T15:13:20.444Z,27.70
2019-05-23T15:14:20.444Z,29.08
2019-05-23T15:15:20.423Z,28.22
2019-05-23T15:16:20.414Z,28.13
2019-05-23T15:17:20.408Z,29.53
2019-05-23T15:18:20.399Z,29.17
2019-05-23T15:19:39.988Z,30.18
2019-05-23T15:20:21.374Z,31.10
2019-05-23T15:21:20.362Z,30.91
2019-05-23T15:22:20.367Z,32.42
2019-05-23T15:23:20.344Z,32.24
2019-05-23T15:24:20.389Z,31.76
2019-05-23T15:25:20.331Z,32.07
2019-05-23T15:26:23.434Z,32.09
2019-05-23T15:27:20.305Z,33.09
2019-05-23T15:28:20.292Z,33.01
2019-05-23T15:29:20.290Z,33.41
2019-05-23T15:30:20.281Z,32.93
2019-05-23T15:31:20.259Z,33.42
2019-05-23T15:32:20.253Z,34.23
2019-05-23T15:33:20.242Z,33.94
2019-05-23T15:34:20.233Z,34.05
2019-05-23T15:35:20.228Z,34.46
2019-05-23T15:36:20.207Z,35.75
2019-05-23T15:37:20.197Z,33.97
2019-05-23T15:38:20.186Z,35.57
2019-05-23T15:39:20.179Z,35.97
2019-05-23T15:40:20.175Z,33.90
2019-05-23T15:41:20.157Z,35.29
2019-05-23T15:42:20.144Z,35.88
2019-05-23T15:43:20.139Z,35.41
2019-05-23T15:44:26.844Z,36.00
2019-05-23T15:45:21.121Z,35.50
2019-05-23T15:46:20.105Z,35.42
2019-05-23T15:47:20.098Z,35.32
2019-05-23T15:48:20.104Z,35.22
2019-05-23T15:49:20.084Z,35.22
2019-05-23T15:50:20.071Z,36.91
2019-05-23T15:51:20.054Z,37.70
2019-05-23T15:52:20.040Z,37.01
2019-05-23T15:53:20.055Z,35.42
2019-05-23T15:54:20.018Z,36.41
2019-05-23T15:55:20.033Z,35.52
2019-05-23T15:56:27.582Z,37.11
2019-05-23T15:57:20.983Z,36.63
2019-05-23T15:58:22.233Z,36.13
2019-05-23T15:59:20.043Z,35.66
2019-05-23T16:00:19.953Z,35.66
2019-05-23T16:01:19.957Z,35.66
2019-05-23T16:02:19.932Z,36.65
2019-05-23T16:03:19.925Z,37.45
2019-05-23T16:04:19.911Z,37.04
2019-05-23T16:05:19.915Z,37.04
2019-05-23T16:06:19.901Z,36.17
2019-05-23T16:07:19.880Z,36.96
2019-05-23T16:08:19.868Z,37.46
2019-05-23T16:09:29.718Z,37.26
2019-05-23T16:10:20.843Z,37.56
2019-05-23T16:11:19.905Z,37.06
2019-05-23T16:12:19.827Z,37.08
2019-05-23T16:13:19.814Z,37.88
2019-05-23T16:14:19.812Z,37.98
2019-05-23T16:15:19.806Z,37.28
2019-05-23T16:16:19.818Z,36.96
2019-05-23T16:17:19.771Z,37.68
2019-05-23T16:18:19.780Z,37.90
2019-05-23T16:19:19.752Z,36.58
2019-05-23T16:20:19.736Z,38.28
2019-05-23T16:21:19.744Z,37.20
2019-05-23T16:22:19.733Z,37.20
2019-05-23T16:23:19.703Z,36.80
2019-05-23T16:24:19.694Z,37.41
2019-05-23T16:25:19.722Z,38.09
2019-05-23T16:26:19.693Z,37.12
2019-05-23T16:27:19.675Z,37.83
2019-05-23T16:28:19.686Z,38.61
2019-05-23T16:29:19.640Z,37.02
2019-05-23T16:30:19.633Z,37.02
2019-05-23T16:31:19.662Z,37.53
2019-05-23T16:32:19.611Z,38.23
2019-05-23T16:33:19.600Z,38.13
2019-05-23T16:34:19.585Z,38.73
2019-05-23T16:35:19.579Z,38.03
2019-05-23T16:36:19.567Z,37.73
2019-05-23T16:37:19.564Z,36.93
2019-05-23T16:38:19.544Z,38.33
2019-05-23T16:39:19.540Z,37.93
2019-05-23T16:40:19.519Z,38.73
2019-05-23T16:41:19.521Z,38.23
2019-05-23T16:42:19.513Z,38.13
2019-05-23T16:43:19.494Z,38.53
2019-05-23T16:44:19.486Z,38.43
2019-05-23T16:45:19.466Z,38.23
2019-05-23T16:46:19.463Z,37.73
2019-05-23T16:47:19.464Z,38.53
2019-05-23T16:48:19.433Z,37.93
2019-05-23T16:49:19.422Z,38.25
2019-05-23T16:50:19.428Z,37.65
2019-05-23T16:51:19.418Z,36.76
2019-05-23T16:52:19.399Z,38.05
2019-05-23T16:53:19.377Z,37.95
2019-05-23T16:54:19.368Z,38.54
2019-05-23T16:55:19.379Z,39.14
2019-05-23T16:56:19.414Z,38.15
2019-05-23T16:57:19.346Z,38.45
2019-05-23T16:58:19.329Z,38.84
2019-05-23T16:59:19.312Z,38.15
2019-05-23T17:00:19.981Z,38.45
2019-05-23T17:01:24.227Z,38.17
2019-05-23T17:02:20.295Z,37.25
2019-05-23T17:03:19.276Z,37.77
2019-05-23T17:04:19.272Z,38.17
2019-05-23T17:05:19.249Z,37.47
2019-05-23T17:06:19.237Z,38.17
2019-05-23T17:07:19.286Z,36.97
2019-05-23T17:08:19.215Z,36.77
2019-05-23T17:09:19.217Z,38.27
2019-05-23T17:10:19.199Z,38.46
2019-05-23T17:11:19.183Z,38.56
2019-05-23T17:12:19.191Z,39.26
2019-05-23T17:13:19.164Z,37.77
2019-05-23T17:14:19.155Z,37.37
2019-05-23T17:15:19.141Z,38.27
2019-05-23T17:16:19.130Z,37.77
2019-05-23T17:17:38.141Z,38.46
2019-05-23T17:18:20.108Z,38.07
2019-05-23T17:19:19.102Z,37.57
2019-05-23T17:20:20.433Z,37.17
2019-05-23T17:21:19.077Z,36.57
2019-05-23T17:22:19.066Z,37.88
2019-05-23T17:23:19.083Z,37.19
2019-05-23T17:24:19.049Z,37.77
2019-05-23T17:25:19.154Z,37.49
2019-05-23T17:26:19.023Z,37.29
2019-05-23T17:27:19.011Z,37.59
2019-05-23T17:28:19.008Z,38.09
2019-05-23T17:29:18.995Z,38.89
2019-05-23T17:30:18.999Z,38.29
2019-05-23T17:31:18.968Z,38.18
2019-05-23T17:32:18.966Z,38.78
2019-05-23T17:33:18.961Z,38.31
2019-05-23T17:34:18.934Z,38.70
2019-05-23T17:35:18.922Z,38.48
2019-05-23T17:36:18.916Z,38.31
2019-05-23T17:37:18.911Z,36.80
2019-05-23T17:38:18.928Z,36.31
2019-05-23T17:39:18.885Z,36.51
2019-05-23T17:40:24.882Z,35.61
2019-05-23T17:41:19.865Z,37.01
2019-05-23T17:42:18.848Z,35.91
2019-05-23T17:43:18.855Z,37.10
2019-05-23T17:44:18.824Z,35.61
2019-05-23T17:45:18.816Z,35.81
2019-05-23T17:46:18.987Z,35.23
2019-05-23T17:47:18.794Z,36.43
2019-05-23T17:48:18.796Z,35.83
2019-05-23T17:49:18.793Z,35.13
2019-05-23T17:50:18.760Z,35.63
2019-05-23T17:51:18.748Z,35.63
2019-05-23T17:52:18.766Z,35.33
2019-05-23T17:53:18.734Z,35.63
2019-05-23T17:54:18.763Z,35.33
2019-05-23T17:55:18.704Z,35.64
2019-05-23T17:56:18.717Z,34.34
2019-05-23T17:57:18.687Z,34.94
2019-05-23T17:58:18.684Z,34.05
2019-05-23T17:59:18.695Z,34.34
2019-05-23T18:00:18.657Z,34.55
2019-05-23T18:01:18.688Z,34.56
2019-05-23T18:02:18.792Z,33.66
2019-05-23T18:03:18.631Z,35.16
2019-05-23T18:04:18.609Z,34.44
2019-05-23T18:05:18.592Z,34.96
2019-05-23T18:06:18.622Z,35.36
2019-05-23T18:07:18.598Z,34.26
2019-05-23T18:08:18.560Z,34.06
2019-05-23T18:09:18.559Z,34.66
2019-05-23T18:10:18.578Z,34.76
2019-05-23T18:11:18.566Z,35.06
2019-05-23T18:12:18.519Z,34.36
2019-05-23T18:13:18.525Z,34.26
2019-05-23T18:14:18.559Z,33.76
2019-05-23T18:15:18.485Z,34.26
2019-05-23T18:16:18.473Z,33.96
2019-05-23T18:17:18.461Z,34.18
2019-05-23T18:18:18.461Z,34.18
2019-05-23T18:19:18.458Z,33.88
2019-05-23T18:20:18.431Z,34.88
2019-05-23T18:21:18.434Z,34.28
2019-05-23T18:22:18.422Z,34.09
2019-05-23T18:23:18.396Z,34.69
2019-05-23T18:24:18.394Z,34.68
2019-05-23T18:25:18.376Z,35.68
2019-05-23T18:26:18.412Z,34.89
2019-05-23T18:27:18.350Z,35.30
2019-05-23T18:28:18.339Z,35.19
2019-05-23T18:29:18.351Z,35.19
2019-05-23T18:30:18.322Z,34.80
2019-05-23T18:31:18.319Z,35.60
2019-05-23T18:32:18.294Z,35.39
2019-05-23T18:33:18.896Z,35.61
2019-05-23T18:34:18.278Z,35.69
2019-05-23T18:35:18.266Z,35.69
2019-05-23T18:36:18.247Z,35.60
2019-05-23T18:37:18.259Z,36.19
2019-05-23T18:38:18.225Z,35.71
2019-05-23T18:39:18.233Z,35.81
2019-05-23T18:40:18.225Z,35.61
2019-05-23T18:41:18.232Z,36.31
2019-05-23T18:42:18.183Z,35.51
2019-05-23T18:43:18.173Z,36.41
2019-05-23T18:44:18.206Z,36.71